sensor_id;sensor_type;location;lat;lon;timestamp;P1;durP1;ratioP1;P2;durP2;ratioP2
68256;SDS011;55069;51.568;4.656;2023-07-30T00:01:24;13.00;;;2.30;;
68256;SDS011;55069;51.568;4.656;2023-07-30T00:03:49;8.43;;;2.35;;
68256;SDS011;55069;51.568;4.656;2023-07-30T00:06:15;9.50;;;2.23;;
68256;SDS011;55069;51.568;4.656;2023-07-30T00:08:41;10.40;;;2.13;;
68256;SDS011;55069;51.568;4.656;2023-07-30T00:11:06;10.73;;;2.78;;
68256;SDS011;55069;51.568;4.656;2023-07-30T00:13:32;10.30;;;2.80;;
68256;SDS011;55069;51.568;4.656;2023-07-30T00:15:57;11.50;;;2.40;;
68256;SDS011;55069;51.568;4.656;2023-07-30T00:18:23;9.10;;;2.10;;
68256;SDS011;55069;51.568;4.656;2023-07-30T00:20:48;9.13;;;2.50;;
68256;SDS011;55069;51.568;4.656;2023-07-30T00:23:14;17.93;;;2.50;;
68256;SDS011;55069;51.568;4.656;2023-07-30T00:25:39;13.77;;;2.88;;
68256;SDS011;55069;51.568;4.656;2023-07-30T00:28:05;13.47;;;2.73;;
68256;SDS011;55069;51.568;4.656;2023-07-30T00:30:30;11.63;;;2.70;;
68256;SDS011;55069;51.568;4.656;2023-07-30T00:32:56;7.32;;;2.03;;
68256;SDS011;55069;51.568;4.656;2023-07-30T00:35:22;13.97;;;3.30;;
68256;SDS011;55069;51.568;4.656;2023-07-30T00:37:47;14.00;;;3.08;;
68256;SDS011;55069;51.568;4.656;2023-07-30T00:40:13;9.70;;;2.63;;
68256;SDS011;55069;51.568;4.656;2023-07-30T00:42:39;11.17;;;2.67;;
68256;SDS011;55069;51.568;4.656;2023-07-30T00:45:04;11.50;;;2.55;;
68256;SDS011;55069;51.568;4.656;2023-07-30T00:47:30;8.68;;;2.38;;
68256;SDS011;55069;51.568;4.656;2023-07-30T00:49:56;15.03;;;2.90;;
68256;SDS011;55069;51.568;4.656;2023-07-30T00:52:23;9.90;;;2.42;;
68256;SDS011;55069;51.568;4.656;2023-07-30T00:54:51;11.38;;;3.05;;
68256;SDS011;55069;51.568;4.656;2023-07-30T00:57:17;12.48;;;3.00;;
68256;SDS011;55069;51.568;4.656;2023-07-30T00:59:44;17.25;;;2.58;;
68256;SDS011;55069;51.568;4.656;2023-07-30T01:02:11;8.47;;;2.70;;
68256;SDS011;55069;51.568;4.656;2023-07-30T01:04:37;13.98;;;2.88;;
68256;SDS011;55069;51.568;4.656;2023-07-30T01:07:04;15.85;;;3.25;;
68256;SDS011;55069;51.568;4.656;2023-07-30T01:09:31;15.18;;;2.90;;
68256;SDS011;55069;51.568;4.656;2023-07-30T01:11:57;12.82;;;2.65;;
68256;SDS011;55069;51.568;4.656;2023-07-30T01:14:24;14.37;;;3.50;;
68256;SDS011;55069;51.568;4.656;2023-07-30T01:16:51;14.38;;;2.92;;
68256;SDS011;55069;51.568;4.656;2023-07-30T01:19:17;12.82;;;3.30;;
68256;SDS011;55069;51.568;4.656;2023-07-30T01:21:43;13.32;;;2.90;;
68256;SDS011;55069;51.568;4.656;2023-07-30T01:24:09;16.87;;;3.57;;
68256;SDS011;55069;51.568;4.656;2023-07-30T01:26:45;19.20;;;3.58;;
68256;SDS011;55069;51.568;4.656;2023-07-30T01:29:21;16.10;;;3.38;;
68256;SDS011;55069;51.568;4.656;2023-07-30T01:31:55;16.05;;;3.53;;
68256;SDS011;55069;51.568;4.656;2023-07-30T01:34:27;7.43;;;2.37;;
68256;SDS011;55069;51.568;4.656;2023-07-30T01:36:53;16.17;;;3.00;;
68256;SDS011;55069;51.568;4.656;2023-07-30T01:39:21;13.68;;;3.38;;
68256;SDS011;55069;51.568;4.656;2023-07-30T01:41:47;16.40;;;3.17;;
68256;SDS011;55069;51.568;4.656;2023-07-30T01:44:12;23.50;;;3.77;;
68256;SDS011;55069;51.568;4.656;2023-07-30T01:46:38;14.93;;;3.57;;
68256;SDS011;55069;51.568;4.656;2023-07-30T01:49:03;17.33;;;3.60;;
68256;SDS011;55069;51.568;4.656;2023-07-30T01:51:29;25.77;;;3.80;;
68256;SDS011;55069;51.568;4.656;2023-07-30T01:53:54;18.13;;;4.17;;
68256;SDS011;55069;51.568;4.656;2023-07-30T01:56:20;17.30;;;3.83;;
68256;SDS011;55069;51.568;4.656;2023-07-30T01:58:46;20.73;;;3.63;;
68256;SDS011;55069;51.568;4.656;2023-07-30T02:01:11;23.27;;;5.00;;
68256;SDS011;55069;51.568;4.656;2023-07-30T02:03:37;15.82;;;3.92;;
68256;SDS011;55069;51.568;4.656;2023-07-30T02:06:02;22.13;;;4.43;;
68256;SDS011;55069;51.568;4.656;2023-07-30T02:08:28;21.23;;;4.53;;
68256;SDS011;55069;51.568;4.656;2023-07-30T02:10:57;18.10;;;3.40;;
68256;SDS011;55069;51.568;4.656;2023-07-30T02:13:24;21.45;;;4.47;;
68256;SDS011;55069;51.568;4.656;2023-07-30T02:15:49;17.67;;;4.03;;
68256;SDS011;55069;51.568;4.656;2023-07-30T02:18:15;20.50;;;3.67;;
68256;SDS011;55069;51.568;4.656;2023-07-30T02:20:40;19.10;;;3.97;;
68256;SDS011;55069;51.568;4.656;2023-07-30T02:23:07;17.48;;;3.53;;
68256;SDS011;55069;51.568;4.656;2023-07-30T02:25:32;19.55;;;3.72;;
68256;SDS011;55069;51.568;4.656;2023-07-30T02:27:59;17.70;;;3.77;;
68256;SDS011;55069;51.568;4.656;2023-07-30T02:30:26;17.77;;;4.05;;
68256;SDS011;55069;51.568;4.656;2023-07-30T02:32:51;19.42;;;4.18;;
68256;SDS011;55069;51.568;4.656;2023-07-30T02:35:17;16.52;;;4.15;;
68256;SDS011;55069;51.568;4.656;2023-07-30T02:37:43;22.67;;;4.03;;
68256;SDS011;55069;51.568;4.656;2023-07-30T02:40:08;15.50;;;4.03;;
68256;SDS011;55069;51.568;4.656;2023-07-30T02:42:34;23.08;;;4.22;;
68256;SDS011;55069;51.568;4.656;2023-07-30T02:45:00;18.80;;;4.50;;
68256;SDS011;55069;51.568;4.656;2023-07-30T02:47:26;20.33;;;4.03;;
68256;SDS011;55069;51.568;4.656;2023-07-30T02:49:51;23.50;;;4.70;;
68256;SDS011;55069;51.568;4.656;2023-07-30T02:52:17;23.23;;;4.22;;
68256;SDS011;55069;51.568;4.656;2023-07-30T02:54:42;18.53;;;4.13;;
68256;SDS011;55069;51.568;4.656;2023-07-30T02:57:08;20.43;;;4.10;;
68256;SDS011;55069;51.568;4.656;2023-07-30T02:59:33;23.73;;;5.00;;
68256;SDS011;55069;51.568;4.656;2023-07-30T03:02:03;26.17;;;5.20;;
68256;SDS011;55069;51.568;4.656;2023-07-30T03:04:32;23.60;;;3.88;;
68256;SDS011;55069;51.568;4.656;2023-07-30T03:06:58;28.65;;;6.28;;
68256;SDS011;55069;51.568;4.656;2023-07-30T03:09:23;30.57;;;6.03;;
68256;SDS011;55069;51.568;4.656;2023-07-30T03:11:49;20.10;;;4.75;;
68256;SDS011;55069;51.568;4.656;2023-07-30T03:14:15;23.08;;;5.00;;
68256;SDS011;55069;51.568;4.656;2023-07-30T03:16:41;25.87;;;5.70;;
68256;SDS011;55069;51.568;4.656;2023-07-30T03:19:06;22.17;;;5.60;;
68256;SDS011;55069;51.568;4.656;2023-07-30T03:21:32;25.47;;;5.70;;
68256;SDS011;55069;51.568;4.656;2023-07-30T03:23:58;19.83;;;5.53;;
68256;SDS011;55069;51.568;4.656;2023-07-30T03:26:23;23.63;;;4.40;;
68256;SDS011;55069;51.568;4.656;2023-07-30T03:28:49;24.47;;;4.73;;
68256;SDS011;55069;51.568;4.656;2023-07-30T03:31:14;30.27;;;5.05;;
68256;SDS011;55069;51.568;4.656;2023-07-30T03:33:41;36.25;;;5.68;;
68256;SDS011;55069;51.568;4.656;2023-07-30T03:36:10;35.15;;;7.10;;
68256;SDS011;55069;51.568;4.656;2023-07-30T03:38:36;25.52;;;6.03;;
68256;SDS011;55069;51.568;4.656;2023-07-30T03:41:01;24.97;;;6.03;;
68256;SDS011;55069;51.568;4.656;2023-07-30T03:43:27;21.60;;;5.05;;
68256;SDS011;55069;51.568;4.656;2023-07-30T03:45:53;25.90;;;4.83;;
68256;SDS011;55069;51.568;4.656;2023-07-30T03:48:18;28.63;;;6.32;;
68256;SDS011;55069;51.568;4.656;2023-07-30T03:50:44;33.80;;;6.67;;
68256;SDS011;55069;51.568;4.656;2023-07-30T03:53:09;36.47;;;6.17;;
68256;SDS011;55069;51.568;4.656;2023-07-30T03:55:35;30.50;;;6.47;;
68256;SDS011;55069;51.568;4.656;2023-07-30T03:58:01;24.63;;;6.30;;
68256;SDS011;55069;51.568;4.656;2023-07-30T04:00:27;25.60;;;5.67;;
68256;SDS011;55069;51.568;4.656;2023-07-30T04:02:54;28.77;;;5.88;;
68256;SDS011;55069;51.568;4.656;2023-07-30T04:05:20;28.23;;;6.07;;
68256;SDS011;55069;51.568;4.656;2023-07-30T04:07:46;32.25;;;6.00;;
68256;SDS011;55069;51.568;4.656;2023-07-30T04:10:11;28.73;;;6.25;;
68256;SDS011;55069;51.568;4.656;2023-07-30T04:12:37;25.33;;;6.53;;
68256;SDS011;55069;51.568;4.656;2023-07-30T04:15:02;28.90;;;7.30;;
68256;SDS011;55069;51.568;4.656;2023-07-30T04:17:28;39.08;;;8.52;;
68256;SDS011;55069;51.568;4.656;2023-07-30T04:19:54;33.83;;;8.33;;
68256;SDS011;55069;51.568;4.656;2023-07-30T04:22:19;33.03;;;7.47;;
68256;SDS011;55069;51.568;4.656;2023-07-30T04:24:45;27.10;;;7.75;;
68256;SDS011;55069;51.568;4.656;2023-07-30T04:27:11;22.30;;;7.05;;
68256;SDS011;55069;51.568;4.656;2023-07-30T04:29:36;31.03;;;7.50;;
68256;SDS011;55069;51.568;4.656;2023-07-30T04:32:02;30.37;;;8.17;;
68256;SDS011;55069;51.568;4.656;2023-07-30T04:34:28;37.15;;;10.00;;
68256;SDS011;55069;51.568;4.656;2023-07-30T04:36:54;34.23;;;8.03;;
68256;SDS011;55069;51.568;4.656;2023-07-30T04:39:20;34.65;;;9.27;;
68256;SDS011;55069;51.568;4.656;2023-07-30T04:41:46;25.23;;;8.37;;
68256;SDS011;55069;51.568;4.656;2023-07-30T04:44:11;28.35;;;7.90;;
68256;SDS011;55069;51.568;4.656;2023-07-30T04:46:37;27.57;;;9.27;;
68256;SDS011;55069;51.568;4.656;2023-07-30T04:49:02;31.03;;;9.97;;
68256;SDS011;55069;51.568;4.656;2023-07-30T04:51:31;31.33;;;9.02;;
68256;SDS011;55069;51.568;4.656;2023-07-30T04:53:56;28.65;;;9.73;;
68256;SDS011;55069;51.568;4.656;2023-07-30T04:56:22;35.27;;;9.37;;
68256;SDS011;55069;51.568;4.656;2023-07-30T04:58:48;35.13;;;9.47;;
68256;SDS011;55069;51.568;4.656;2023-07-30T05:01:13;27.83;;;7.72;;
68256;SDS011;55069;51.568;4.656;2023-07-30T05:03:39;31.87;;;7.53;;
68256;SDS011;55069;51.568;4.656;2023-07-30T05:06:04;28.40;;;6.70;;
68256;SDS011;55069;51.568;4.656;2023-07-30T05:08:30;28.55;;;6.65;;
68256;SDS011;55069;51.568;4.656;2023-07-30T05:10:55;31.40;;;6.07;;
68256;SDS011;55069;51.568;4.656;2023-07-30T05:13:21;28.00;;;6.60;;
68256;SDS011;55069;51.568;4.656;2023-07-30T05:15:46;29.33;;;5.37;;
68256;SDS011;55069;51.568;4.656;2023-07-30T05:18:12;27.07;;;5.33;;
68256;SDS011;55069;51.568;4.656;2023-07-30T05:20:38;32.90;;;4.97;;
68256;SDS011;55069;51.568;4.656;2023-07-30T05:23:04;24.73;;;4.07;;
68256;SDS011;55069;51.568;4.656;2023-07-30T05:25:32;22.25;;;4.28;;
68256;SDS011;55069;51.568;4.656;2023-07-30T05:27:57;32.47;;;5.00;;
68256;SDS011;55069;51.568;4.656;2023-07-30T05:30:23;19.05;;;4.05;;
68256;SDS011;55069;51.568;4.656;2023-07-30T05:32:48;24.07;;;4.00;;
68256;SDS011;55069;51.568;4.656;2023-07-30T05:35:14;25.70;;;5.10;;
68256;SDS011;55069;51.568;4.656;2023-07-30T05:37:40;27.57;;;4.57;;
68256;SDS011;55069;51.568;4.656;2023-07-30T05:40:05;27.20;;;4.23;;
68256;SDS011;55069;51.568;4.656;2023-07-30T05:42:32;26.58;;;4.65;;
68256;SDS011;55069;51.568;4.656;2023-07-30T05:44:57;24.08;;;4.07;;
68256;SDS011;55069;51.568;4.656;2023-07-30T05:47:23;22.57;;;4.00;;
68256;SDS011;55069;51.568;4.656;2023-07-30T05:49:48;32.37;;;4.70;;
68256;SDS011;55069;51.568;4.656;2023-07-30T05:52:14;28.90;;;5.30;;
68256;SDS011;55069;51.568;4.656;2023-07-30T05:54:39;27.67;;;4.80;;
68256;SDS011;55069;51.568;4.656;2023-07-30T05:57:05;29.83;;;5.57;;
68256;SDS011;55069;51.568;4.656;2023-07-30T05:59:30;28.40;;;4.20;;
68256;SDS011;55069;51.568;4.656;2023-07-30T06:01:56;28.25;;;5.05;;
68256;SDS011;55069;51.568;4.656;2023-07-30T06:04:23;24.77;;;4.75;;
68256;SDS011;55069;51.568;4.656;2023-07-30T06:06:48;31.00;;;5.50;;
68256;SDS011;55069;51.568;4.656;2023-07-30T06:09:14;30.40;;;5.13;;
68256;SDS011;55069;51.568;4.656;2023-07-30T06:11:39;28.30;;;5.55;;
68256;SDS011;55069;51.568;4.656;2023-07-30T06:14:05;28.30;;;4.97;;
68256;SDS011;55069;51.568;4.656;2023-07-30T06:16:30;30.40;;;4.80;;
68256;SDS011;55069;51.568;4.656;2023-07-30T06:18:56;22.60;;;4.43;;
68256;SDS011;55069;51.568;4.656;2023-07-30T06:21:21;29.98;;;4.85;;
68256;SDS011;55069;51.568;4.656;2023-07-30T06:23:47;32.53;;;5.27;;
68256;SDS011;55069;51.568;4.656;2023-07-30T06:26:12;27.53;;;5.00;;
68256;SDS011;55069;51.568;4.656;2023-07-30T06:28:38;32.27;;;5.80;;
68256;SDS011;55069;51.568;4.656;2023-07-30T06:31:03;29.23;;;5.72;;
68256;SDS011;55069;51.568;4.656;2023-07-30T06:33:29;31.88;;;5.80;;
68256;SDS011;55069;51.568;4.656;2023-07-30T06:35:55;36.75;;;6.32;;
68256;SDS011;55069;51.568;4.656;2023-07-30T06:38:21;21.73;;;5.77;;
68256;SDS011;55069;51.568;4.656;2023-07-30T06:40:46;23.88;;;5.38;;
68256;SDS011;55069;51.568;4.656;2023-07-30T06:43:12;25.60;;;4.83;;
68256;SDS011;55069;51.568;4.656;2023-07-30T06:45:37;25.17;;;4.90;;
68256;SDS011;55069;51.568;4.656;2023-07-30T06:48:03;22.92;;;5.00;;
68256;SDS011;55069;51.568;4.656;2023-07-30T06:50:28;27.13;;;4.93;;
68256;SDS011;55069;51.568;4.656;2023-07-30T06:52:54;32.63;;;5.73;;
68256;SDS011;55069;51.568;4.656;2023-07-30T06:55:19;22.77;;;4.67;;
68256;SDS011;55069;51.568;4.656;2023-07-30T06:57:45;35.80;;;5.28;;
68256;SDS011;55069;51.568;4.656;2023-07-30T07:00:11;28.37;;;5.77;;
68256;SDS011;55069;51.568;4.656;2023-07-30T07:02:37;24.75;;;4.82;;
68256;SDS011;55069;51.568;4.656;2023-07-30T07:05:02;27.93;;;4.40;;
68256;SDS011;55069;51.568;4.656;2023-07-30T07:07:28;26.92;;;4.10;;
68256;SDS011;55069;51.568;4.656;2023-07-30T07:09:53;27.57;;;5.27;;
68256;SDS011;55069;51.568;4.656;2023-07-30T07:12:19;30.35;;;4.90;;
68256;SDS011;55069;51.568;4.656;2023-07-30T07:14:44;29.80;;;5.00;;
68256;SDS011;55069;51.568;4.656;2023-07-30T07:17:10;24.03;;;4.97;;
68256;SDS011;55069;51.568;4.656;2023-07-30T07:19:35;24.83;;;4.70;;
68256;SDS011;55069;51.568;4.656;2023-07-30T07:22:04;23.27;;;4.25;;
68256;SDS011;55069;51.568;4.656;2023-07-30T07:24:30;23.70;;;5.40;;
68256;SDS011;55069;51.568;4.656;2023-07-30T07:26:56;24.33;;;4.43;;
68256;SDS011;55069;51.568;4.656;2023-07-30T07:29:22;21.73;;;4.00;;
68256;SDS011;55069;51.568;4.656;2023-07-30T07:31:47;23.20;;;4.03;;
68256;SDS011;55069;51.568;4.656;2023-07-30T07:34:13;24.27;;;4.25;;
68256;SDS011;55069;51.568;4.656;2023-07-30T07:36:38;22.00;;;4.80;;
68256;SDS011;55069;51.568;4.656;2023-07-30T07:39:04;18.90;;;4.10;;
68256;SDS011;55069;51.568;4.656;2023-07-30T07:41:29;26.52;;;5.03;;
68256;SDS011;55069;51.568;4.656;2023-07-30T07:43:55;26.83;;;4.83;;
68256;SDS011;55069;51.568;4.656;2023-07-30T07:46:22;24.23;;;4.17;;
68256;SDS011;55069;51.568;4.656;2023-07-30T07:48:47;19.83;;;5.15;;
68256;SDS011;55069;51.568;4.656;2023-07-30T07:51:13;22.17;;;4.77;;
68256;SDS011;55069;51.568;4.656;2023-07-30T07:53:39;20.92;;;4.35;;
68256;SDS011;55069;51.568;4.656;2023-07-30T07:56:04;21.30;;;4.37;;
68256;SDS011;55069;51.568;4.656;2023-07-30T07:58:30;22.40;;;4.13;;
68256;SDS011;55069;51.568;4.656;2023-07-30T08:00:56;20.40;;;4.10;;
68256;SDS011;55069;51.568;4.656;2023-07-30T08:03:22;23.90;;;3.70;;
68256;SDS011;55069;51.568;4.656;2023-07-30T08:05:48;18.50;;;3.58;;
68256;SDS011;55069;51.568;4.656;2023-07-30T08:08:15;21.77;;;4.55;;
68256;SDS011;55069;51.568;4.656;2023-07-30T08:10:42;22.73;;;4.63;;
68256;SDS011;55069;51.568;4.656;2023-07-30T08:13:10;23.97;;;3.83;;
68256;SDS011;55069;51.568;4.656;2023-07-30T08:15:36;19.83;;;3.45;;
68256;SDS011;55069;51.568;4.656;2023-07-30T08:18:01;18.83;;;3.70;;
68256;SDS011;55069;51.568;4.656;2023-07-30T08:20:27;21.25;;;3.65;;
68256;SDS011;55069;51.568;4.656;2023-07-30T08:22:52;16.43;;;4.17;;
68256;SDS011;55069;51.568;4.656;2023-07-30T08:25:18;20.97;;;4.50;;
68256;SDS011;55069;51.568;4.656;2023-07-30T08:27:43;24.65;;;4.28;;
68256;SDS011;55069;51.568;4.656;2023-07-30T08:30:09;18.47;;;3.50;;
68256;SDS011;55069;51.568;4.656;2023-07-30T08:32:35;22.55;;;3.47;;
68256;SDS011;55069;51.568;4.656;2023-07-30T08:35:00;19.37;;;3.50;;
68256;SDS011;55069;51.568;4.656;2023-07-30T08:37:26;22.50;;;3.75;;
68256;SDS011;55069;51.568;4.656;2023-07-30T08:39:52;18.63;;;3.63;;
68256;SDS011;55069;51.568;4.656;2023-07-30T08:42:17;19.97;;;4.73;;
68256;SDS011;55069;51.568;4.656;2023-07-30T08:44:43;20.83;;;4.13;;
68256;SDS011;55069;51.568;4.656;2023-07-30T08:47:09;19.73;;;3.93;;
68256;SDS011;55069;51.568;4.656;2023-07-30T08:49:35;16.50;;;3.50;;
68256;SDS011;55069;51.568;4.656;2023-07-30T08:52:01;18.20;;;4.00;;
68256;SDS011;55069;51.568;4.656;2023-07-30T08:54:29;14.53;;;3.10;;
68256;SDS011;55069;51.568;4.656;2023-07-30T08:56:56;15.88;;;2.83;;
68256;SDS011;55069;51.568;4.656;2023-07-30T08:59:23;15.40;;;2.72;;
68256;SDS011;55069;51.568;4.656;2023-07-30T09:01:50;14.70;;;2.67;;
68256;SDS011;55069;51.568;4.656;2023-07-30T09:04:18;18.55;;;3.15;;
68256;SDS011;55069;51.568;4.656;2023-07-30T09:06:44;13.43;;;2.80;;
68256;SDS011;55069;51.568;4.656;2023-07-30T09:09:13;18.60;;;3.53;;
68256;SDS011;55069;51.568;4.656;2023-07-30T09:11:38;10.43;;;2.78;;
68256;SDS011;55069;51.568;4.656;2023-07-30T09:14:05;14.15;;;3.35;;
68256;SDS011;55069;51.568;4.656;2023-07-30T09:16:31;13.18;;;3.40;;
68256;SDS011;55069;51.568;4.656;2023-07-30T09:18:56;18.40;;;4.15;;
68256;SDS011;55069;51.568;4.656;2023-07-30T09:21:32;16.23;;;4.13;;
68256;SDS011;55069;51.568;4.656;2023-07-30T09:24:01;20.60;;;3.65;;
68256;SDS011;55069;51.568;4.656;2023-07-30T09:26:39;12.63;;;2.72;;
68256;SDS011;55069;51.568;4.656;2023-07-30T09:29:07;12.25;;;3.03;;
68256;SDS011;55069;51.568;4.656;2023-07-30T09:31:42;16.20;;;3.47;;
68256;SDS011;55069;51.568;4.656;2023-07-30T09:34:16;15.30;;;2.67;;
68256;SDS011;55069;51.568;4.656;2023-07-30T09:36:46;13.38;;;2.80;;
68256;SDS011;55069;51.568;4.656;2023-07-30T09:39:16;18.83;;;3.03;;
68256;SDS011;55069;51.568;4.656;2023-07-30T09:41:46;14.00;;;2.55;;
68256;SDS011;55069;51.568;4.656;2023-07-30T09:44:12;18.93;;;3.47;;
68256;SDS011;55069;51.568;4.656;2023-07-30T09:46:41;16.63;;;3.47;;
68256;SDS011;55069;51.568;4.656;2023-07-30T09:49:12;16.75;;;3.67;;
68256;SDS011;55069;51.568;4.656;2023-07-30T09:51:38;14.80;;;2.70;;
68256;SDS011;55069;51.568;4.656;2023-07-30T09:54:08;19.67;;;2.85;;
68256;SDS011;55069;51.568;4.656;2023-07-30T09:56:38;14.17;;;3.07;;
68256;SDS011;55069;51.568;4.656;2023-07-30T09:59:05;16.75;;;3.55;;
68256;SDS011;55069;51.568;4.656;2023-07-30T10:01:32;15.45;;;2.88;;
68256;SDS011;55069;51.568;4.656;2023-07-30T10:04:09;13.98;;;2.78;;
68256;SDS011;55069;51.568;4.656;2023-07-30T10:06:46;15.50;;;2.55;;
68256;SDS011;55069;51.568;4.656;2023-07-30T10:09:17;13.97;;;2.30;;
68256;SDS011;55069;51.568;4.656;2023-07-30T10:11:45;11.15;;;1.77;;
68256;SDS011;55069;51.568;4.656;2023-07-30T10:14:13;13.77;;;2.00;;
68256;SDS011;55069;51.568;4.656;2023-07-30T10:16:48;7.32;;;1.80;;
68256;SDS011;55069;51.568;4.656;2023-07-30T10:19:15;14.15;;;2.33;;
68256;SDS011;55069;51.568;4.656;2023-07-30T10:21:41;13.00;;;1.93;;
68256;SDS011;55069;51.568;4.656;2023-07-30T10:24:07;10.05;;;2.05;;
68256;SDS011;55069;51.568;4.656;2023-07-30T10:26:34;13.35;;;1.90;;
68256;SDS011;55069;51.568;4.656;2023-07-30T10:29:11;13.60;;;2.40;;
68256;SDS011;55069;51.568;4.656;2023-07-30T10:31:51;12.63;;;2.33;;
68256;SDS011;55069;51.568;4.656;2023-07-30T10:34:21;8.23;;;1.70;;
68256;SDS011;55069;51.568;4.656;2023-07-30T10:36:50;8.25;;;1.75;;
68256;SDS011;55069;51.568;4.656;2023-07-30T10:41:51;16.40;;;2.07;;
68256;SDS011;55069;51.568;4.656;2023-07-30T10:46:50;16.60;;;2.28;;
68256;SDS011;55069;51.568;4.656;2023-07-30T10:49:16;10.33;;;1.60;;
68256;SDS011;55069;51.568;4.656;2023-07-30T10:51:41;10.00;;;1.70;;
68256;SDS011;55069;51.568;4.656;2023-07-30T10:54:07;8.10;;;1.50;;
68256;SDS011;55069;51.568;4.656;2023-07-30T10:56:34;8.18;;;1.27;;
68256;SDS011;55069;51.568;4.656;2023-07-30T10:59:02;5.05;;;1.00;;
68256;SDS011;55069;51.568;4.656;2023-07-30T11:01:30;9.07;;;1.00;;
68256;SDS011;55069;51.568;4.656;2023-07-30T11:03:56;8.73;;;1.92;;
68256;SDS011;55069;51.568;4.656;2023-07-30T11:06:22;8.77;;;2.40;;
68256;SDS011;55069;51.568;4.656;2023-07-30T11:08:51;7.45;;;1.70;;
68256;SDS011;55069;51.568;4.656;2023-07-30T11:11:17;8.43;;;2.00;;
68256;SDS011;55069;51.568;4.656;2023-07-30T11:13:43;8.30;;;1.30;;
68256;SDS011;55069;51.568;4.656;2023-07-30T11:16:13;8.98;;;1.30;;
68256;SDS011;55069;51.568;4.656;2023-07-30T11:18:39;5.18;;;1.15;;
68256;SDS011;55069;51.568;4.656;2023-07-30T11:21:06;6.77;;;1.23;;
68256;SDS011;55069;51.568;4.656;2023-07-30T11:23:36;11.02;;;1.27;;
68256;SDS011;55069;51.568;4.656;2023-07-30T11:26:03;7.60;;;1.38;;
68256;SDS011;55069;51.568;4.656;2023-07-30T11:28:34;8.25;;;1.60;;
68256;SDS011;55069;51.568;4.656;2023-07-30T11:31:02;7.47;;;2.03;;
68256;SDS011;55069;51.568;4.656;2023-07-30T11:33:29;9.63;;;1.80;;
68256;SDS011;55069;51.568;4.656;2023-07-30T11:35:55;9.95;;;2.17;;
68256;SDS011;55069;51.568;4.656;2023-07-30T11:38:25;12.02;;;1.95;;
68256;SDS011;55069;51.568;4.656;2023-07-30T11:40:52;10.63;;;1.50;;
68256;SDS011;55069;51.568;4.656;2023-07-30T11:43:20;9.35;;;1.95;;
68256;SDS011;55069;51.568;4.656;2023-07-30T11:45:46;9.90;;;1.70;;
68256;SDS011;55069;51.568;4.656;2023-07-30T11:48:12;10.70;;;1.63;;
68256;SDS011;55069;51.568;4.656;2023-07-30T11:50:45;7.93;;;1.17;;
68256;SDS011;55069;51.568;4.656;2023-07-30T11:53:11;9.57;;;1.13;;
68256;SDS011;55069;51.568;4.656;2023-07-30T11:55:37;9.68;;;1.77;;
68256;SDS011;55069;51.568;4.656;2023-07-30T11:58:04;5.15;;;1.17;;
68256;SDS011;55069;51.568;4.656;2023-07-30T12:00:31;5.90;;;1.02;;
68256;SDS011;55069;51.568;4.656;2023-07-30T12:03:01;8.52;;;1.35;;
68256;SDS011;55069;51.568;4.656;2023-07-30T12:05:34;6.65;;;1.27;;
68256;SDS011;55069;51.568;4.656;2023-07-30T12:08:01;7.70;;;1.40;;
68256;SDS011;55069;51.568;4.656;2023-07-30T12:10:40;7.82;;;1.50;;
68256;SDS011;55069;51.568;4.656;2023-07-30T12:13:14;6.03;;;1.42;;
68256;SDS011;55069;51.568;4.656;2023-07-30T12:15:42;11.88;;;1.65;;
68256;SDS011;55069;51.568;4.656;2023-07-30T12:18:18;5.30;;;0.88;;
68256;SDS011;55069;51.568;4.656;2023-07-30T12:20:44;9.10;;;1.33;;
68256;SDS011;55069;51.568;4.656;2023-07-30T12:23:09;3.80;;;0.80;;
68256;SDS011;55069;51.568;4.656;2023-07-30T12:25:35;3.15;;;0.90;;
68256;SDS011;55069;51.568;4.656;2023-07-30T12:28:00;2.83;;;0.55;;
68256;SDS011;55069;51.568;4.656;2023-07-30T12:30:26;6.33;;;1.00;;
68256;SDS011;55069;51.568;4.656;2023-07-30T12:32:53;6.45;;;1.10;;
68256;SDS011;55069;51.568;4.656;2023-07-30T12:35:19;8.00;;;1.30;;
68256;SDS011;55069;51.568;4.656;2023-07-30T12:37:44;9.47;;;1.17;;
68256;SDS011;55069;51.568;4.656;2023-07-30T12:40:10;4.33;;;0.90;;
68256;SDS011;55069;51.568;4.656;2023-07-30T12:42:35;5.30;;;1.33;;
68256;SDS011;55069;51.568;4.656;2023-07-30T12:45:01;7.03;;;1.50;;
68256;SDS011;55069;51.568;4.656;2023-07-30T12:47:26;7.27;;;1.27;;
68256;SDS011;55069;51.568;4.656;2023-07-30T12:49:52;8.77;;;1.00;;
68256;SDS011;55069;51.568;4.656;2023-07-30T12:52:17;11.20;;;1.83;;
68256;SDS011;55069;51.568;4.656;2023-07-30T12:54:43;8.00;;;1.60;;
68256;SDS011;55069;51.568;4.656;2023-07-30T12:57:08;5.10;;;1.00;;
68256;SDS011;55069;51.568;4.656;2023-07-30T12:59:34;4.80;;;1.20;;
68256;SDS011;55069;51.568;4.656;2023-07-30T13:02:01;3.38;;;1.00;;
68256;SDS011;55069;51.568;4.656;2023-07-30T13:04:26;8.40;;;1.27;;
68256;SDS011;55069;51.568;4.656;2023-07-30T13:06:53;10.93;;;1.50;;
68256;SDS011;55069;51.568;4.656;2023-07-30T13:09:20;7.38;;;1.88;;
68256;SDS011;55069;51.568;4.656;2023-07-30T13:11:46;9.15;;;1.60;;
68256;SDS011;55069;51.568;4.656;2023-07-30T13:14:12;9.32;;;1.30;;
68256;SDS011;55069;51.568;4.656;2023-07-30T13:16:37;9.17;;;1.77;;
68256;SDS011;55069;51.568;4.656;2023-07-30T13:19:03;9.77;;;1.53;;
68256;SDS011;55069;51.568;4.656;2023-07-30T13:21:28;10.18;;;2.10;;
68256;SDS011;55069;51.568;4.656;2023-07-30T13:23:54;5.78;;;1.30;;
68256;SDS011;55069;51.568;4.656;2023-07-30T13:26:19;8.83;;;1.50;;
68256;SDS011;55069;51.568;4.656;2023-07-30T13:28:45;11.45;;;1.80;;
68256;SDS011;55069;51.568;4.656;2023-07-30T13:31:11;11.43;;;2.28;;
68256;SDS011;55069;51.568;4.656;2023-07-30T13:33:36;9.67;;;2.03;;
68256;SDS011;55069;51.568;4.656;2023-07-30T13:36:02;15.07;;;2.70;;
68256;SDS011;55069;51.568;4.656;2023-07-30T13:38:29;9.32;;;1.77;;
68256;SDS011;55069;51.568;4.656;2023-07-30T13:40:54;12.85;;;2.88;;
68256;SDS011;55069;51.568;4.656;2023-07-30T13:43:20;10.57;;;2.17;;
68256;SDS011;55069;51.568;4.656;2023-07-30T13:45:45;12.93;;;2.00;;
68256;SDS011;55069;51.568;4.656;2023-07-30T13:48:15;8.45;;;1.60;;
68256;SDS011;55069;51.568;4.656;2023-07-30T13:50:41;9.05;;;1.50;;
68256;SDS011;55069;51.568;4.656;2023-07-30T13:53:06;21.33;;;2.60;;
68256;SDS011;55069;51.568;4.656;2023-07-30T13:55:32;11.20;;;1.70;;
68256;SDS011;55069;51.568;4.656;2023-07-30T13:57:58;12.32;;;2.00;;
68256;SDS011;55069;51.568;4.656;2023-07-30T14:00:23;10.67;;;1.60;;
68256;SDS011;55069;51.568;4.656;2023-07-30T14:02:49;8.50;;;1.65;;
68256;SDS011;55069;51.568;4.656;2023-07-30T14:05:16;8.00;;;2.05;;
68256;SDS011;55069;51.568;4.656;2023-07-30T14:07:42;15.18;;;1.98;;
68256;SDS011;55069;51.568;4.656;2023-07-30T14:10:08;7.37;;;1.47;;
68256;SDS011;55069;51.568;4.656;2023-07-30T14:12:34;9.98;;;1.63;;
68256;SDS011;55069;51.568;4.656;2023-07-30T14:15:00;9.02;;;1.77;;
68256;SDS011;55069;51.568;4.656;2023-07-30T14:17:25;8.27;;;2.03;;
68256;SDS011;55069;51.568;4.656;2023-07-30T14:19:50;8.77;;;2.00;;
68256;SDS011;55069;51.568;4.656;2023-07-30T14:22:16;11.30;;;2.67;;
68256;SDS011;55069;51.568;4.656;2023-07-30T14:24:42;10.68;;;3.10;;
68256;SDS011;55069;51.568;4.656;2023-07-30T14:27:09;14.43;;;2.17;;
68256;SDS011;55069;51.568;4.656;2023-07-30T14:29:35;14.73;;;2.10;;
68256;SDS011;55069;51.568;4.656;2023-07-30T14:32:01;14.20;;;2.83;;
68256;SDS011;55069;51.568;4.656;2023-07-30T14:34:26;13.20;;;2.70;;
68256;SDS011;55069;51.568;4.656;2023-07-30T14:36:52;11.23;;;2.53;;
68256;SDS011;55069;51.568;4.656;2023-07-30T14:39:17;9.43;;;2.47;;